Time;durP1;ratioP1;P1;durP2;ratioP2;P2;SDS_P1;SDS_P2;PMS_P1;PMS_P2;Temp;Humidity;BMP_temperature;BMP_pressure;BME280_temperature;BME280_humidity;BME280_pressure;Samples;Min_cycle;Max_cycle;Signal;HPM_P1;HPM_P2
2023/06/13 00:02:22;;;;;;;4.63;2.35;;;;;;;;;;6121113;23;20049;-86
2023/06/13 00:04:51;;;;;;;4.18;2.42;;;;;;;;;;6122664;23;20109;-86
2023/06/13 00:07:17;;;;;;;5.07;2.78;;;;;;;;;;6121359;23;20363;-85
2023/06/13 00:09:44;;;;;;;4.80;3.15;;;;;;;;;;6121335;23;20060;-85
2023/06/13 00:12:10;;;;;;;3.70;3.00;;;;;;;;;;6121798;23;20080;-84
2023/06/13 00:14:36;;;;;;;4.03;3.08;;;;;;;;;;6119635;23;20124;-85
2023/06/13 00:17:02;;;;;;;7.82;3.50;;;;;;;;;;6097285;23;20057;-85
2023/06/13 00:19:28;;;;;;;4.40;2.83;;;;;;;;;;6121672;23;20018;-82
2023/06/13 00:21:56;;;;;;;6.70;3.08;;;;;;;;;;6121256;23;20096;-83
2023/06/13 00:24:22;;;;;;;6.18;3.72;;;;;;;;;;6123048;23;20014;-84
2023/06/13 00:26:48;;;;;;;4.90;3.28;;;;;;;;;;6122871;23;20022;-86
2023/06/13 00:29:14;;;;;;;6.20;3.30;;;;;;;;;;6121118;23;20320;-85
2023/06/13 00:31:40;;;;;;;5.38;3.40;;;;;;;;;;6096190;23;20026;-84
2023/06/13 00:34:06;;;;;;;3.78;3.25;;;;;;;;;;6121027;23;20018;-84
2023/06/13 00:36:33;;;;;;;4.32;3.42;;;;;;;;;;6121764;23;20018;-85
2023/06/13 00:38:59;;;;;;;6.38;3.28;;;;;;;;;;6121471;23;20325;-86
2023/06/13 00:41:26;;;;;;;4.47;3.10;;;;;;;;;;6120267;23;20021;-85
2023/06/13 00:43:52;;;;;;;4.85;3.33;;;;;;;;;;6120017;23;20029;-84
2023/06/13 00:46:28;;;;;;;5.07;3.22;;;;;;;;;;6123031;23;20010;-87
2023/06/13 00:48:57;;;;;;;4.20;3.10;;;;;;;;;;6123329;23;20013;-86
2023/06/13 00:51:24;;;;;;;4.55;3.33;;;;;;;;;;6120662;23;20014;-85
2023/06/13 00:53:50;;;;;;;6.32;3.38;;;;;;;;;;6122876;23;20017;-85
2023/06/13 00:56:17;;;;;;;5.18;3.35;;;;;;;;;;6122869;23;20025;-86
2023/06/13 00:58:43;;;;;;;4.10;3.22;;;;;;;;;;6120300;23;20022;-86
2023/06/13 01:01:10;;;;;;;4.28;3.55;;;;;;;;;;6121023;23;20026;-87
2023/06/13 01:03:38;;;;;;;5.07;3.47;;;;;;;;;;6119751;23;20317;-85
2023/06/13 01:06:05;;;;;;;5.40;3.30;;;;;;;;;;6123324;23;20328;-86
2023/06/13 01:08:32;;;;;;;6.15;3.63;;;;;;;;;;6119978;23;20018;-86
2023/06/13 01:11:07;;;;;;;4.18;2.90;;;;;;;;;;6121912;23;20049;-85
2023/06/13 01:13:43;;;;;;;3.53;2.75;;;;;;;;;;6119548;23;20018;-85
2023/06/13 01:16:09;;;;;;;4.47;3.30;;;;;;;;;;6121070;23;20018;-84
2023/06/13 01:18:37;;;;;;;3.38;2.97;;;;;;;;;;6119393;23;20073;-85
2023/06/13 01:21:04;;;;;;;3.80;2.97;;;;;;;;;;6120848;23;20010;-86
2023/06/13 01:23:43;;;;;;;3.65;2.97;;;;;;;;;;6119918;23;20100;-84
2023/06/13 01:26:21;;;;;;;5.40;3.72;;;;;;;;;;6120576;23;20149;-84
2023/06/13 01:28:51;;;;;;;3.83;2.92;;;;;;;;;;6120757;23;20097;-85
2023/06/13 01:31:18;;;;;;;4.30;3.30;;;;;;;;;;6120535;23;20018;-85
2023/06/13 01:33:44;;;;;;;5.22;3.22;;;;;;;;;;6120248;23;20028;-85
2023/06/13 01:36:10;;;;;;;5.82;3.47;;;;;;;;;;6122373;23;20077;-84
2023/06/13 01:38:37;;;;;;;5.47;3.85;;;;;;;;;;6119650;23;20333;-84
2023/06/13 01:41:03;;;;;;;6.05;3.30;;;;;;;;;;6096206;23;20038;-84
2023/06/13 01:43:29;;;;;;;5.30;3.50;;;;;;;;;;6121063;23;20132;-86
2023/06/13 01:46:00;;;;;;;5.95;3.40;;;;;;;;;;6120512;23;20041;-86
2023/06/13 01:48:39;;;;;;;3.88;3.28;;;;;;;;;;6119954;23;20053;-85
2023/06/13 01:51:24;;;;;;;5.88;3.42;;;;;;;;;;6120625;23;20065;-84
2023/06/13 01:53:55;;;;;;;5.18;2.92;;;;;;;;;;6120560;23;20345;-84
2023/06/13 01:56:25;;;;;;;5.30;3.08;;;;;;;;;;6119582;23;20022;-83
2023/06/13 01:59:02;;;;;;;5.35;3.63;;;;;;;;;;6122227;23;20018;-84
2023/06/13 02:01:32;;;;;;;4.03;3.00;;;;;;;;;;6121189;23;20024;-85
2023/06/13 02:03:59;;;;;;;3.80;3.08;;;;;;;;;;6120303;23;20092;-85
2023/06/13 02:06:26;;;;;;;3.85;3.40;;;;;;;;;;6121545;23;20014;-85
2023/06/13 02:08:53;;;;;;;3.72;3.10;;;;;;;;;;6122506;23;20064;-85
2023/06/13 02:11:19;;;;;;;3.35;2.97;;;;;;;;;;6121376;23;20028;-86
2023/06/13 02:13:45;;;;;;;4.97;3.78;;;;;;;;;;6122328;23;20020;-85
2023/06/13 02:16:12;;;;;;;5.45;3.90;;;;;;;;;;6122031;23;20018;-86
2023/06/13 02:18:39;;;;;;;3.83;3.20;;;;;;;;;;6120661;23;20033;-85
2023/06/13 02:21:05;;;;;;;6.82;3.55;;;;;;;;;;6120793;23;20018;-84
2023/06/13 02:23:31;;;;;;;5.55;3.67;;;;;;;;;;6121724;23;20018;-85
2023/06/13 02:25:57;;;;;;;4.85;3.42;;;;;;;;;;6120262;23;20086;-85
2023/06/13 02:28:23;;;;;;;5.95;3.28;;;;;;;;;;6121842;23;20049;-85
2023/06/13 02:30:49;;;;;;;3.33;3.00;;;;;;;;;;6121729;23;20456;-86
2023/06/13 02:33:15;;;;;;;5.32;3.30;;;;;;;;;;6121757;23;20018;-84
2023/06/13 02:35:42;;;;;;;5.65;3.35;;;;;;;;;;6119720;23;20069;-84
2023/06/13 02:38:08;;;;;;;5.82;3.35;;;;;;;;;;6120618;23;20022;-85
2023/06/13 02:40:37;;;;;;;4.50;3.42;;;;;;;;;;6118098;23;20014;-84
2023/06/13 02:43:04;;;;;;;4.80;3.10;;;;;;;;;;6120613;23;20033;-84
2023/06/13 02:45:30;;;;;;;7.93;3.72;;;;;;;;;;6119311;23;20010;-88
2023/06/13 02:47:56;;;;;;;6.78;4.05;;;;;;;;;;6119001;23;20399;-85
2023/06/13 02:50:22;;;;;;;5.50;3.28;;;;;;;;;;6093195;23;20084;-86
2023/06/13 02:52:48;;;;;;;4.10;3.10;;;;;;;;;;6119310;23;20085;-85
2023/06/13 02:55:14;;;;;;;4.57;3.10;;;;;;;;;;6120027;23;20014;-85
2023/06/13 02:57:41;;;;;;;4.93;3.08;;;;;;;;;;6119385;23;20013;-86
2023/06/13 03:00:08;;;;;;;5.88;3.42;;;;;;;;;;6119932;23;20029;-85
2023/06/13 03:02:36;;;;;;;4.65;3.08;;;;;;;;;;6119535;23;20093;-85
2023/06/13 03:05:03;;;;;;;3.85;3.38;;;;;;;;;;6122449;23;20010;-85
2023/06/13 03:07:31;;;;;;;3.92;3.30;;;;;;;;;;6094527;23;20014;-84
2023/06/13 03:09:59;;;;;;;6.97;3.83;;;;;;;;;;6121930;23;20336;-84
2023/06/13 03:12:25;;;;;;;4.45;3.40;;;;;;;;;;6119463;23;20447;-85
2023/06/13 03:14:51;;;;;;;3.42;3.08;;;;;;;;;;6121648;23;20021;-84
2023/06/13 03:17:17;;;;;;;3.67;3.28;;;;;;;;;;6120067;23;20045;-86
2023/06/13 03:19:44;;;;;;;6.75;3.40;;;;;;;;;;6120044;23;20021;-83
2023/06/13 03:22:14;;;;;;;5.75;3.17;;;;;;;;;;6119199;23;20025;-85
2023/06/13 03:24:40;;;;;;;;;;;;;;;;;;6119242;23;20022;-87
2023/06/13 03:27:06;;;;;;;3.65;3.13;;;;;;;;;;6120442;23;19921;-86
2023/06/13 03:29:32;;;;;;;4.00;2.83;;;;;;;;;;6118405;23;20057;-84
2023/06/13 03:31:58;;;;;;;4.00;3.17;;;;;;;;;;6121757;23;20022;-85
2023/06/13 03:34:26;;;;;;;4.88;3.33;;;;;;;;;;6121334;23;20014;-85
2023/06/13 03:36:52;;;;;;;3.15;2.85;;;;;;;;;;6119507;23;20014;-85
2023/06/13 03:39:18;;;;;;;4.07;3.17;;;;;;;;;;6120538;23;20447;-85
2023/06/13 03:41:44;;;;;;;4.63;2.88;;;;;;;;;;6120073;23;20056;-86
2023/06/13 03:44:10;;;;;;;5.25;3.15;;;;;;;;;;6119985;23;20014;-83
2023/06/13 03:46:36;;;;;;;7.68;3.45;;;;;;;;;;6119312;23;20063;-84
2023/06/13 03:49:03;;;;;;;4.78;3.58;;;;;;;;;;6121974;23;20384;-85
2023/06/13 03:51:29;;;;;;;5.07;2.92;;;;;;;;;;6121806;23;20029;-85
2023/06/13 03:53:55;;;;;;;4.32;3.20;;;;;;;;;;6122932;23;20368;-85
2023/06/13 03:56:21;;;;;;;3.72;2.75;;;;;;;;;;6121407;23;20104;-84
2023/06/13 03:58:47;;;;;;;4.50;2.67;;;;;;;;;;6121452;23;20049;-83
2023/06/13 04:01:13;;;;;;;4.55;3.13;;;;;;;;;;6123319;23;20444;-83
2023/06/13 04:03:41;;;;;;;4.03;3.10;;;;;;;;;;6119934;23;20021;-85
2023/06/13 04:06:08;;;;;;;4.43;2.60;;;;;;;;;;6121446;23;20061;-84
2023/06/13 04:08:36;;;;;;;3.20;2.67;;;;;;;;;;6121277;23;20014;-85
2023/06/13 04:11:02;;;;;;;4.45;3.10;;;;;;;;;;6123365;23;20362;-87
2023/06/13 04:13:28;;;;;;;5.22;2.78;;;;;;;;;;6119597;23;20020;-85
2023/06/13 04:15:54;;;;;;;6.00;3.20;;;;;;;;;;6123422;23;20085;-83
2023/06/13 04:18:21;;;;;;;3.67;2.42;;;;;;;;;;6122100;23;20024;-85
2023/06/13 04:20:47;;;;;;;4.13;3.03;;;;;;;;;;6121061;23;20097;-85
2023/06/13 04:23:14;;;;;;;3.00;2.65;;;;;;;;;;6122669;23;20021;-87
2023/06/13 04:25:40;;;;;;;3.17;2.78;;;;;;;;;;6118051;23;20030;-85
2023/06/13 04:28:08;;;;;;;6.10;3.30;;;;;;;;;;6121115;23;20045;-86
2023/06/13 04:30:36;;;;;;;7.43;2.70;;;;;;;;;;6122092;23;20033;-85
2023/06/13 04:33:05;;;;;;;4.20;3.00;;;;;;;;;;6121607;23;20447;-83
2023/06/13 04:35:37;;;;;;;3.20;2.47;;;;;;;;;;6120477;23;20057;-85
2023/06/13 04:38:04;;;;;;;4.10;2.85;;;;;;;;;;6122823;23;20017;-84
2023/06/13 04:40:31;;;;;;;4.85;2.65;;;;;;;;;;6120209;23;20022;-89
2023/06/13 04:42:58;;;;;;;3.17;2.88;;;;;;;;;;6122536;23;20173;-82
2023/06/13 04:45:24;;;;;;;4.32;2.88;;;;;;;;;;6122612;23;20339;-82
2023/06/13 04:47:51;;;;;;;4.07;2.80;;;;;;;;;;6121193;23;20321;-84
2023/06/13 04:50:21;;;;;;;2.65;2.45;;;;;;;;;;6119506;23;20014;-85
2023/06/13 04:52:53;;;;;;;5.53;3.08;;;;;;;;;;6120474;23;20574;-87
2023/06/13 04:55:21;;;;;;;3.67;2.50;;;;;;;;;;6123501;23;20476;-88
2023/06/13 04:57:47;;;;;;;5.65;2.90;;;;;;;;;;6120448;23;20014;-86
2023/06/13 05:00:15;;;;;;;6.32;2.97;;;;;;;;;;6121106;23;20470;-90
2023/06/13 05:02:41;;;;;;;6.03;2.80;;;;;;;;;;6118704;23;20061;-89
2023/06/13 05:05:08;;;;;;;3.33;2.80;;;;;;;;;;6120133;23;20018;-86
2023/06/13 05:07:39;;;;;;;3.42;2.55;;;;;;;;;;6120337;23;20018;-91
2023/06/13 05:10:05;;;;;;;4.13;2.80;;;;;;;;;;6119254;23;20018;-88
2023/06/13 05:12:31;;;;;;;7.00;2.72;;;;;;;;;;6095638;23;20073;-85
2023/06/13 05:14:57;;;;;;;3.80;2.70;;;;;;;;;;6121975;23;20026;-89
2023/06/13 05:17:23;;;;;;;3.38;2.80;;;;;;;;;;6096322;23;20017;-87
2023/06/13 05:19:50;;;;;;;3.45;2.55;;;;;;;;;;6120503;23;20036;-90
2023/06/13 05:22:17;;;;;;;3.50;2.28;;;;;;;;;;6121809;23;20026;-87
2023/06/13 05:24:43;;;;;;;4.03;2.97;;;;;;;;;;6119436;23;20436;-89
2023/06/13 05:27:09;;;;;;;3.92;2.70;;;;;;;;;;6121233;23;20030;-89
2023/06/13 05:29:35;;;;;;;4.25;2.42;;;;;;;;;;6119805;23;20100;-86
2023/06/13 05:32:01;;;;;;;6.90;3.30;;;;;;;;;;6120539;23;20022;-85
2023/06/13 05:34:27;;;;;;;4.25;2.88;;;;;;;;;;6117650;23;20047;-88
2023/06/13 05:36:54;;;;;;;3.88;3.05;;;;;;;;;;6096598;23;20014;-86
2023/06/13 05:39:20;;;;;;;5.80;3.30;;;;;;;;;;6121958;23;20359;-86
2023/06/13 05:41:46;;;;;;;5.95;2.67;;;;;;;;;;6120522;23;20021;-86
2023/06/13 05:44:13;;;;;;;4.00;3.03;;;;;;;;;;6121981;23;20439;-85
2023/06/13 05:46:39;;;;;;;4.35;2.65;;;;;;;;;;6119640;23;20041;-88
2023/06/13 05:49:05;;;;;;;3.50;3.05;;;;;;;;;;6096495;23;20018;-86
2023/06/13 05:51:32;;;;;;;3.65;2.67;;;;;;;;;;6121747;23;20305;-85
2023/06/13 05:53:58;;;;;;;2.55;2.30;;;;;;;;;;6121058;23;20022;-85
2023/06/13 05:56:25;;;;;;;3.72;2.67;;;;;;;;;;6121558;23;20025;-88
2023/06/13 05:58:51;;;;;;;3.65;3.17;;;;;;;;;;6094355;23;20014;-85
2023/06/13 06:01:20;;;;;;;3.28;2.78;;;;;;;;;;6122870;23;20332;-87
2023/06/13 06:03:46;;;;;;;4.50;3.13;;;;;;;;;;6120225;23;20021;-86
2023/06/13 06:06:13;;;;;;;3.45;3.13;;;;;;;;;;6123027;23;20010;-83
2023/06/13 06:08:42;;;;;;;4.68;2.85;;;;;;;;;;6121110;23;20113;-85
2023/06/13 06:11:08;;;;;;;4.55;2.50;;;;;;;;;;6120575;23;20611;-87
2023/06/13 06:13:34;;;;;;;3.45;2.83;;;;;;;;;;6118771;23;20329;-84
2023/06/13 06:16:00;;;;;;;4.75;3.22;;;;;;;;;;6120781;23;20343;-91
2023/06/13 06:18:26;;;;;;;3.55;2.88;;;;;;;;;;6119468;23;20096;-88
2023/06/13 06:20:52;;;;;;;4.38;3.35;;;;;;;;;;6120294;23;20040;-87
2023/06/13 06:23:18;;;;;;;4.57;3.17;;;;;;;;;;6123583;23;20028;-94
2023/06/13 06:25:44;;;;;;;4.53;2.80;;;;;;;;;;6122077;23;20076;-90
2023/06/13 06:28:10;;;;;;;4.30;3.00;;;;;;;;;;6123469;23;20014;-90
2023/06/13 06:30:36;;;;;;;6.60;3.08;;;;;;;;;;6096095;23;20010;-86
2023/06/13 06:33:02;;;;;;;4.25;3.05;;;;;;;;;;6121523;23;20013;-93
2023/06/13 06:35:28;;;;;;;3.72;2.58;;;;;;;;;;6099518;23;20073;-91
2023/06/13 06:37:54;;;;;;;4.25;3.20;;;;;;;;;;6123907;23;20018;-88
2023/06/13 06:40:21;;;;;;;3.40;2.90;;;;;;;;;;6120228;23;20021;-89
2023/06/13 06:42:47;;;;;;;6.90;3.00;;;;;;;;;;6121917;23;20438;-86
2023/06/13 06:45:13;;;;;;;5.95;3.25;;;;;;;;;;6120987;23;20010;-86
2023/06/13 06:47:42;;;;;;;5.07;3.38;;;;;;;;;;6118902;23;20018;-92
2023/06/13 06:50:08;;;;;;;4.25;3.17;;;;;;;;;;6124182;23;20022;-94
2023/06/13 06:52:34;;;;;;;5.53;3.15;;;;;;;;;;6119321;23;20045;-90
2023/06/13 06:55:00;;;;;;;4.35;3.42;;;;;;;;;;6122177;23;20018;-94
2023/06/13 06:57:26;;;;;;;4.38;3.20;;;;;;;;;;6120204;23;20014;-90
2023/06/13 06:59:53;;;;;;;5.53;3.28;;;;;;;;;;6098080;23;20424;-90
2023/06/13 07:02:19;;;;;;;4.13;3.13;;;;;;;;;;6098533;23;20018;-84
2023/06/13 07:04:45;;;;;;;4.53;2.95;;;;;;;;;;6122637;23;20020;-89
2023/06/13 07:07:11;;;;;;;4.22;3.03;;;;;;;;;;6098426;23;20013;-91
2023/06/13 07:09:37;;;;;;;4.93;2.97;;;;;;;;;;6100175;23;20110;-91
2023/06/13 07:12:04;;;;;;;3.33;2.83;;;;;;;;;;6123658;23;20071;-89
2023/06/13 07:14:30;;;;;;;6.15;3.72;;;;;;;;;;6121987;23;20018;-87
2023/06/13 07:16:56;;;;;;;3.45;2.70;;;;;;;;;;6121462;23;20025;-85
2023/06/13 07:19:23;;;;;;;3.75;3.03;;;;;;;;;;6123668;23;20014;-89
2023/06/13 07:21:49;;;;;;;4.78;2.97;;;;;;;;;;6120544;23;20099;-90
2023/06/13 07:24:15;;;;;;;3.97;2.88;;;;;;;;;;6122910;23;20054;-87
2023/06/13 07:26:41;;;;;;;2.80;2.60;;;;;;;;;;6123355;23;20056;-88
2023/06/13 07:29:07;;;;;;;4.03;3.13;;;;;;;;;;6122438;23;20325;-85
2023/06/13 07:31:33;;;;;;;6.82;3.00;;;;;;;;;;6123464;23;20018;-84
2023/06/13 07:33:59;;;;;;;3.70;2.50;;;;;;;;;;6124646;23;20017;-87
2023/06/13 07:36:27;;;;;;;5.20;3.08;;;;;;;;;;6121539;23;20443;-88
2023/06/13 07:38:53;;;;;;;3.88;2.90;;;;;;;;;;6099407;23;20045;-85
2023/06/13 07:41:19;;;;;;;8.48;3.25;;;;;;;;;;6123939;23;20014;-88
2023/06/13 07:43:45;;;;;;;4.93;2.85;;;;;;;;;;6124099;23;20048;-91
2023/06/13 07:46:11;;;;;;;3.90;2.83;;;;;;;;;;6123482;23;20029;-87
2023/06/13 07:48:37;;;;;;;4.53;2.63;;;;;;;;;;6122526;23;20018;-95
2023/06/13 07:51:05;;;;;;;4.60;2.55;;;;;;;;;;6128956;23;20137;-91
2023/06/13 07:53:31;;;;;;;3.05;2.63;;;;;;;;;;6127557;23;20013;-95
2023/06/13 07:55:57;;;;;;;3.10;2.80;;;;;;;;;;6128295;23;20410;-89
2023/06/13 07:58:23;;;;;;;3.83;2.50;;;;;;;;;;6123074;23;20022;-88
2023/06/13 08:00:49;;;;;;;3.85;2.58;;;;;;;;;;6103379;23;20014;-91
2023/06/13 08:03:15;;;;;;;3.47;2.30;;;;;;;;;;6127521;23;20092;-85
2023/06/13 08:05:41;;;;;;;5.75;2.90;;;;;;;;;;6128081;23;20013;-90
2023/06/13 08:08:07;;;;;;;2.97;2.67;;;;;;;;;;6124453;23;20009;-86
2023/06/13 08:10:33;;;;;;;3.33;3.03;;;;;;;;;;6126026;23;20018;-88
2023/06/13 08:13:00;;;;;;;3.53;2.15;;;;;;;;;;6125908;23;20093;-93
2023/06/13 08:15:26;;;;;;;3.97;2.72;;;;;;;;;;6097644;23;20400;-91
2023/06/13 08:17:54;;;;;;;3.10;2.60;;;;;;;;;;6127516;23;20010;-91
2023/06/13 08:20:20;;;;;;;4.88;3.03;;;;;;;;;;6128130;23;20018;-93
2023/06/13 08:22:46;;;;;;;2.35;2.15;;;;;;;;;;6125176;23;20444;-89
2023/06/13 08:25:12;;;;;;;3.53;2.47;;;;;;;;;;6126068;23;20019;-87
2023/06/13 08:27:43;;;;;;;4.28;2.58;;;;;;;;;;6121317;23;20033;-87
2023/06/13 08:30:09;;;;;;;2.90;2.65;;;;;;;;;;6124525;23;20014;-91
2023/06/13 08:32:35;;;;;;;2.83;2.30;;;;;;;;;;6123291;23;20025;-89
2023/06/13 08:35:02;;;;;;;2.88;2.40;;;;;;;;;;6101506;23;20014;-91
2023/06/13 08:37:28;;;;;;;4.22;2.20;;;;;;;;;;6133206;23;20022;-93
2023/06/13 08:39:54;;;;;;;3.95;2.40;;;;;;;;;;6131140;23;20094;-90
2023/06/13 08:42:20;;;;;;;3.60;2.28;;;;;;;;;;6129020;23;20014;-91
2023/06/13 08:44:48;;;;;;;2.70;2.50;;;;;;;;;;6126169;23;20340;-89
2023/06/13 08:47:16;;;;;;;4.68;2.17;;;;;;;;;;6125732;23;20016;-90
2023/06/13 08:49:43;;;;;;;4.03;2.20;;;;;;;;;;6099258;23;20014;-91
2023/06/13 08:52:11;;;;;;;3.47;2.20;;;;;;;;;;6124889;23;20018;-83
2023/06/13 08:54:37;;;;;;;4.53;2.60;;;;;;;;;;6121291;23;20018;-90
2023/06/13 08:57:06;;;;;;;5.35;2.38;;;;;;;;;;6124624;23;20010;-93
2023/06/13 08:59:35;;;;;;;4.05;2.28;;;;;;;;;;6120752;23;20316;-87
2023/06/13 09:02:01;;;;;;;3.67;2.40;;;;;;;;;;6121279;23;20340;-95
2023/06/13 09:04:28;;;;;;;3.22;2.53;;;;;;;;;;6096564;23;20025;-87
2023/06/13 09:06:57;;;;;;;2.20;2.00;;;;;;;;;;6123154;23;20053;-86
2023/06/13 09:09:24;;;;;;;2.03;1.90;;;;;;;;;;6121811;23;20021;-90
2023/06/13 09:11:51;;;;;;;3.17;2.35;;;;;;;;;;6122563;23;20028;-89
2023/06/13 09:14:17;;;;;;;3.83;2.65;;;;;;;;;;6122774;23;20068;-85
2023/06/13 09:16:44;;;;;;;2.40;2.20;;;;;;;;;;6123422;23;20014;-87
2023/06/13 09:19:11;;;;;;;4.25;2.15;;;;;;;;;;6123217;23;20141;-84
2023/06/13 09:21:37;;;;;;;5.82;2.45;;;;;;;;;;6121983;23;20018;-89
2023/06/13 09:24:03;;;;;;;3.95;2.55;;;;;;;;;;6120933;23;20047;-85
2023/06/13 09:26:30;;;;;;;4.35;2.10;;;;;;;;;;6118959;23;20029;-86
2023/06/13 09:28:58;;;;;;;3.38;2.75;;;;;;;;;;6122975;23;20344;-90
2023/06/13 09:31:24;;;;;;;3.10;2.33;;;;;;;;;;6120785;23;20021;-88
2023/06/13 09:33:50;;;;;;;3.45;2.50;;;;;;;;;;6120894;23;20101;-86
2023/06/13 09:36:17;;;;;;;3.08;2.63;;;;;;;;;;6120979;23;20018;-89
2023/06/13 09:38:44;;;;;;;4.35;2.72;;;;;;;;;;6121809;23;20014;-87
2023/06/13 09:41:12;;;;;;;4.18;1.90;;;;;;;;;;6123368;23;20014;-84
2023/06/13 09:43:38;;;;;;;4.13;2.50;;;;;;;;;;6120978;23;20057;-87
2023/06/13 09:46:04;;;;;;;3.70;2.30;;;;;;;;;;6122614;23;20029;-93
2023/06/13 09:48:30;;;;;;;3.78;2.63;;;;;;;;;;6120287;23;20093;-85
2023/06/13 09:50:56;;;;;;;2.80;2.60;;;;;;;;;;6121618;23;20045;-89
2023/06/13 09:53:22;;;;;;;2.88;2.50;;;;;;;;;;6122140;23;20017;-89
2023/06/13 09:55:49;;;;;;;2.65;2.45;;;;;;;;;;6121920;23;20348;-88
2023/06/13 09:58:15;;;;;;;3.03;2.28;;;;;;;;;;6122416;23;20014;-89
2023/06/13 10:00:41;;;;;;;2.78;2.42;;;;;;;;;;6123288;23;20045;-85
2023/06/13 10:03:08;;;;;;;4.70;3.00;;;;;;;;;;6123876;23;20017;-92
2023/06/13 10:05:34;;;;;;;2.85;2.17;;;;;;;;;;6120949;23;20048;-93
2023/06/13 10:08:00;;;;;;;3.90;2.33;;;;;;;;;;6120723;23;20010;-85
2023/06/13 10:10:26;;;;;;;4.38;2.42;;;;;;;;;;6119760;23;20056;-87
2023/06/13 10:12:56;;;;;;;4.55;2.60;;;;;;;;;;6119862;23;20022;-86
2023/06/13 10:15:29;;;;;;;4.63;2.28;;;;;;;;;;6119681;23;20010;-86
2023/06/13 10:17:58;;;;;;;3.67;2.42;;;;;;;;;;6122774;23;20084;-82
2023/06/13 10:20:25;;;;;;;2.95;2.25;;;;;;;;;;6119851;23;20045;-88
2023/06/13 10:22:51;;;;;;;3.45;2.20;;;;;;;;;;6096007;23;20014;-86
2023/06/13 10:25:18;;;;;;;4.70;2.58;;;;;;;;;;6119459;23;20096;-89
2023/06/13 10:27:48;;;;;;;3.15;2.42;;;;;;;;;;6095452;23;20053;-90
2023/06/13 10:30:33;;;;;;;2.55;2.30;;;;;;;;;;6123606;23;20014;-89
2023/06/13 10:33:18;;;;;;;2.58;2.00;;;;;;;;;;6122396;23;20010;-92
2023/06/13 10:35:44;;;;;;;4.47;2.63;;;;;;;;;;6124433;23;20044;-86
2023/06/13 10:38:17;;;;;;;3.67;2.47;;;;;;;;;;6122936;23;20049;-91
2023/06/13 10:41:02;;;;;;;4.70;2.38;;;;;;;;;;6098605;23;20010;-86
2023/06/13 10:43:40;;;;;;;2.85;2.30;;;;;;;;;;6120577;23;20018;-92
2023/06/13 10:46:07;;;;;;;6.05;2.67;;;;;;;;;;6120658;23;20372;-83
2023/06/13 10:48:43;;;;;;;4.47;2.47;;;;;;;;;;6121849;23;20010;-85
2023/06/13 10:51:10;;;;;;;2.40;2.20;;;;;;;;;;6124507;23;20085;-92
2023/06/13 10:53:37;;;;;;;3.10;2.22;;;;;;;;;;6122306;23;20010;-84
2023/06/13 10:56:04;;;;;;;2.85;2.33;;;;;;;;;;6121947;23;20078;-86
2023/06/13 10:58:30;;;;;;;3.72;2.55;;;;;;;;;;6119141;23;20025;-85
2023/06/13 11:00:56;;;;;;;3.55;2.53;;;;;;;;;;6097309;23;20010;-88
2023/06/13 11:03:30;;;;;;;3.20;2.22;;;;;;;;;;6124380;23;20379;-84
2023/06/13 11:05:56;;;;;;;4.68;2.70;;;;;;;;;;6124680;23;20014;-83
2023/06/13 11:08:23;;;;;;;6.18;2.70;;;;;;;;;;6120912;23;20514;-85
2023/06/13 11:10:50;;;;;;;3.88;3.10;;;;;;;;;;6123629;23;20065;-83
2023/06/13 11:13:18;;;;;;;3.50;2.70;;;;;;;;;;6122502;23;20021;-83
2023/06/13 11:15:45;;;;;;;3.83;2.75;;;;;;;;;;6121459;23;20025;-84
2023/06/13 11:18:13;;;;;;;3.20;2.90;;;;;;;;;;6124016;23;20336;-86
2023/06/13 11:20:51;;;;;;;3.03;2.67;;;;;;;;;;6123360;23;20020;-89
2023/06/13 11:23:37;;;;;;;5.72;2.88;;;;;;;;;;6123531;23;20021;-92
2023/06/13 11:26:04;;;;;;;3.55;2.72;;;;;;;;;;6124477;23;20141;-84
2023/06/13 11:28:30;;;;;;;5.05;2.60;;;;;;;;;;6121607;23;20093;-88
2023/06/13 11:31:00;;;;;;;3.03;2.72;;;;;;;;;;6123764;23;20040;-84
2023/06/13 11:33:27;;;;;;;4.18;3.00;;;;;;;;;;6123070;23;20343;-86
2023/06/13 11:35:56;;;;;;;3.00;2.67;;;;;;;;;;6123789;23;20014;-91
2023/06/13 11:38:27;;;;;;;5.68;2.80;;;;;;;;;;6123894;23;20014;-94
2023/06/13 11:40:58;;;;;;;3.75;2.72;;;;;;;;;;6097313;23;20102;-84
2023/06/13 11:43:28;;;;;;;3.05;2.60;;;;;;;;;;6124696;23;20025;-87
2023/06/13 11:46:01;;;;;;;3.72;3.13;;;;;;;;;;6125758;23;20010;-83
2023/06/13 11:48:27;;;;;;;4.43;2.78;;;;;;;;;;6122610;23;20041;-82
2023/06/13 11:50:54;;;;;;;3.63;3.33;;;;;;;;;;6123066;23;20388;-83
2023/06/13 11:53:20;;;;;;;4.15;3.05;;;;;;;;;;6122993;23;20025;-91
2023/06/13 11:55:47;;;;;;;3.55;2.95;;;;;;;;;;6123455;23;20021;-83
2023/06/13 11:58:13;;;;;;;3.70;2.92;;;;;;;;;;6123090;23;20037;-88
2023/06/13 12:00:49;;;;;;;3.60;2.50;;;;;;;;;;6122524;23;20018;-84
2023/06/13 12:03:19;;;;;;;3.78;2.70;;;;;;;;;;6121529;23;20037;-87
2023/06/13 12:05:45;;;;;;;3.35;2.90;;;;;;;;;;6121003;23;20387;-83
2023/06/13 12:08:11;;;;;;;4.05;2.97;;;;;;;;;;6121750;23;20332;-88
2023/06/13 12:10:38;;;;;;;3.55;3.15;;;;;;;;;;6123499;23;20026;-83
2023/06/13 12:13:04;;;;;;;3.10;2.65;;;;;;;;;;6123227;23;20092;-92
2023/06/13 12:15:30;;;;;;;5.05;3.00;;;;;;;;;;6124871;23;20081;-89
2023/06/13 12:17:56;;;;;;;6.25;2.65;;;;;;;;;;6124606;23;20132;-82
2023/06/13 12:20:24;;;;;;;3.28;2.88;;;;;;;;;;6121855;23;20010;-86
2023/06/13 12:23:01;;;;;;;3.67;2.88;;;;;;;;;;6121434;23;20025;-82
2023/06/13 12:25:28;;;;;;;5.80;2.70;;;;;;;;;;6120864;23;20022;-88
2023/06/13 12:27:55;;;;;;;3.03;2.70;;;;;;;;;;6122857;23;20455;-84
2023/06/13 12:30:21;;;;;;;3.63;2.63;;;;;;;;;;6119970;23;20077;-85
2023/06/13 12:32:48;;;;;;;3.55;2.70;;;;;;;;;;6123027;23;20535;-87
2023/06/13 12:35:20;;;;;;;4.65;2.65;;;;;;;;;;6121003;23;20148;-86
2023/06/13 12:37:55;;;;;;;5.30;2.97;;;;;;;;;;6123021;23;20388;-84
2023/06/13 12:40:25;;;;;;;2.80;2.60;;;;;;;;;;6122544;23;20014;-83
2023/06/13 12:42:51;;;;;;;3.47;2.88;;;;;;;;;;6121299;23;20014;-87
2023/06/13 12:45:17;;;;;;;3.38;2.88;;;;;;;;;;6096871;23;20013;-83
2023/06/13 12:47:43;;;;;;;3.10;2.80;;;;;;;;;;6121238;23;20022;-83
2023/06/13 12:50:12;;;;;;;3.92;2.90;;;;;;;;;;6120744;23;20329;-89
2023/06/13 12:52:38;;;;;;;2.45;2.22;;;;;;;;;;6122954;23;20022;-85
2023/06/13 12:55:04;;;;;;;3.35;2.65;;;;;;;;;;6123693;23;20017;-85
2023/06/13 12:57:31;;;;;;;2.78;2.47;;;;;;;;;;6121057;23;20503;-92
2023/06/13 12:59:57;;;;;;;3.67;2.53;;;;;;;;;;6121900;23;20018;-83
2023/06/13 13:02:24;;;;;;;3.00;2.42;;;;;;;;;;6120849;23;20025;-83
2023/06/13 13:05:00;;;;;;;3.10;2.78;;;;;;;;;;6121468;23;20014;-81
2023/06/13 13:07:30;;;;;;;2.45;2.25;;;;;;;;;;6121961;23;20014;-81
2023/06/13 13:09:56;;;;;;;3.13;2.67;;;;;;;;;;6122895;23;20018;-90
2023/06/13 13:12:22;;;;;;;3.83;2.50;;;;;;;;;;6123104;23;20025;-81
2023/06/13 13:14:49;;;;;;;3.85;2.65;;;;;;;;;;6096564;23;20049;-83
2023/06/13 13:17:15;;;;;;;3.03;2.55;;;;;;;;;;6120674;23;20049;-83
2023/06/13 13:19:41;;;;;;;3.88;2.67;;;;;;;;;;6119522;23;20014;-86
2023/06/13 13:22:07;;;;;;;4.85;2.67;;;;;;;;;;6122031;23;20029;-84
2023/06/13 13:24:35;;;;;;;4.43;2.88;;;;;;;;;;6119994;23;20018;-83
2023/06/13 13:27:01;;;;;;;2.75;2.55;;;;;;;;;;6122578;23;20018;-84
2023/06/13 13:29:28;;;;;;;3.95;2.58;;;;;;;;;;6121173;23;20134;-89
2023/06/13 13:31:54;;;;;;;2.97;2.67;;;;;;;;;;6122076;23;20014;-90
2023/06/13 13:34:20;;;;;;;4.68;2.40;;;;;;;;;;6119550;23;20010;-86
2023/06/13 13:36:46;;;;;;;4.03;2.67;;;;;;;;;;6122202;23;20014;-84
2023/06/13 13:39:13;;;;;;;3.33;2.35;;;;;;;;;;6121096;23;20022;-85
2023/06/13 13:41:39;;;;;;;3.00;2.70;;;;;;;;;;6121363;23;20072;-86
2023/06/13 13:44:06;;;;;;;3.60;2.40;;;;;;;;;;6122738;23;20018;-84
2023/06/13 13:46:32;;;;;;;4.07;2.35;;;;;;;;;;6119361;23;20017;-82
2023/06/13 13:48:58;;;;;;;4.53;3.15;;;;;;;;;;6122445;23;20110;-82
2023/06/13 13:51:26;;;;;;;4.47;2.70;;;;;;;;;;6121872;23;20018;-89
2023/06/13 13:53:52;;;;;;;3.50;2.78;;;;;;;;;;6122693;23;20048;-82
2023/06/13 13:56:18;;;;;;;3.92;2.45;;;;;;;;;;6122131;23;20082;-82
2023/06/13 13:58:44;;;;;;;4.60;2.92;;;;;;;;;;6120476;23;20013;-82
2023/06/13 14:01:10;;;;;;;2.95;2.15;;;;;;;;;;6120167;23;20014;-82
2023/06/13 14:03:36;;;;;;;6.13;2.58;;;;;;;;;;6120114;23;20014;-82
2023/06/13 14:06:03;;;;;;;6.85;2.42;;;;;;;;;;6121797;23;20010;-85
2023/06/13 14:08:29;;;;;;;4.82;2.35;;;;;;;;;;6120353;23;20022;-84
2023/06/13 14:10:56;;;;;;;5.35;2.60;;;;;;;;;;6122565;23;20018;-85
2023/06/13 14:13:22;;;;;;;3.97;2.40;;;;;;;;;;6121781;23;20474;-83
2023/06/13 14:15:48;;;;;;;2.97;2.10;;;;;;;;;;6120209;23;20133;-90
2023/06/13 14:18:15;;;;;;;2.90;2.28;;;;;;;;;;6121436;23;20025;-86
2023/06/13 14:20:42;;;;;;;2.63;2.15;;;;;;;;;;6121030;23;20086;-90
2023/06/13 14:23:12;;;;;;;9.95;2.70;;;;;;;;;;6122855;23;20022;-84
2023/06/13 14:25:38;;;;;;;3.72;2.47;;;;;;;;;;6121320;23;20014;-87
2023/06/13 14:28:04;;;;;;;3.83;2.50;;;;;;;;;;6122251;23;20026;-85
2023/06/13 14:30:30;;;;;;;5.15;2.50;;;;;;;;;;6119235;23;20026;-80
2023/06/13 14:32:56;;;;;;;3.42;2.60;;;;;;;;;;6120867;23;20022;-83
2023/06/13 14:35:22;;;;;;;3.00;2.60;;;;;;;;;;6121582;23;20453;-83
2023/06/13 14:37:48;;;;;;;3.33;2.38;;;;;;;;;;6119935;23;20022;-82
2023/06/13 14:40:14;;;;;;;3.58;2.50;;;;;;;;;;6121815;23;20021;-89
2023/06/13 14:42:40;;;;;;;3.13;2.22;;;;;;;;;;6119343;23;20016;-83
2023/06/13 14:45:06;;;;;;;3.05;2.22;;;;;;;;;;6119340;23;20089;-87